Lulu, Florida
Current Conditions -  °F | °C
As of 3:15 AM on Monday 26 Jan 2015 (Local Time) from KLCQ Reporting Station
Overcast Overcast  
Wind Chill: 52°   Ceiling: 5500
Heat Index: 52°   Visibility: 10mi
Dew Point: 52°   Wind: 5mph
Humidity: 100%   Direction: 230°SW
Pressure: 29.81"   Gusts: NA
Location:  30.11°N, 82.49°W
Report Text: KLCQ 260815Z AUTO 23004KT 10SM BKN055 OVC070 11/11 A2981 RMK AO2
Loading
Personal Weather Stations






























Interactive Weather Map New forecast layout! Learn more

10-Day Weather Forecast

Advertisements
Track Severe Weather on mobile